createdAt,value
2023-02-03T00:02:23.815Z,9.70
2023-02-03T00:04:50.982Z,9.62
2023-02-03T00:07:19.007Z,9.92
2023-02-03T00:09:46.199Z,9.90
2023-02-03T00:12:13.886Z,9.85
2023-02-03T00:14:41.055Z,9.88
2023-02-03T00:17:08.339Z,9.96
2023-02-03T00:19:35.579Z,9.87
2023-02-03T00:22:02.731Z,9.77
2023-02-03T00:24:29.971Z,9.64
2023-02-03T00:26:57.143Z,9.74
2023-02-03T00:29:25.993Z,9.80
2023-02-03T00:31:53.996Z,9.61
2023-02-03T00:34:21.842Z,9.80
2023-02-03T00:36:49.084Z,9.83
2023-02-03T00:39:16.525Z,9.80
2023-02-03T00:41:43.921Z,9.89
2023-02-03T00:44:11.231Z,9.85
2023-02-03T00:46:38.715Z,9.63
2023-02-03T00:49:06.248Z,9.65
2023-02-03T00:51:34.134Z,9.82
2023-02-03T00:54:02.968Z,9.67
2023-02-03T00:56:30.330Z,9.87
2023-02-03T00:58:57.876Z,10.36
2023-02-03T01:01:27.158Z,10.02
2023-02-03T01:03:57.032Z,9.80
2023-02-03T01:06:24.416Z,10.08
2023-02-03T01:08:52.199Z,10.05
2023-02-03T01:11:22.361Z,9.97
2023-02-03T01:13:50.271Z,9.74
2023-02-03T01:16:19.966Z,9.73
2023-02-03T01:18:47.361Z,9.78
2023-02-03T01:21:20.597Z,9.59
2023-02-03T01:23:48.101Z,9.68
2023-02-03T01:26:18.700Z,9.67
2023-02-03T01:28:53.209Z,9.53
2023-02-03T01:31:42.303Z,9.60
2023-02-03T01:34:16.180Z,9.59
2023-02-03T01:36:44.147Z,9.50
2023-02-03T01:39:11.578Z,9.40
2023-02-03T01:41:39.729Z,9.38
2023-02-03T01:44:45.187Z,9.29
2023-02-03T01:47:33.930Z,9.40
2023-02-03T01:50:11.726Z,9.42
2023-02-03T01:52:41.708Z,9.48
2023-02-03T01:55:13.164Z,9.59
2023-02-03T01:57:46.154Z,9.57
2023-02-03T02:00:13.981Z,9.91
2023-02-03T02:02:43.324Z,10.00
2023-02-03T02:05:24.959Z,9.85
2023-02-03T02:07:52.240Z,9.85
2023-02-03T02:10:19.684Z,9.86
2023-02-03T02:12:48.057Z,9.71
2023-02-03T02:15:15.387Z,9.77
2023-02-03T02:18:01.292Z,9.83
2023-02-03T02:21:02.819Z,9.83
2023-02-03T02:23:37.501Z,9.71
2023-02-03T02:26:19.805Z,9.79
2023-02-03T02:29:05.792Z,9.79
2023-02-03T02:31:44.356Z,9.99
2023-02-03T02:34:20.289Z,9.93
2023-02-03T02:37:11.115Z,10.13
2023-02-03T02:39:48.696Z,10.03
2023-02-03T02:42:23.446Z,9.80
2023-02-03T02:45:08.023Z,9.64
2023-02-03T02:47:35.333Z,9.64
2023-02-03T02:50:11.496Z,9.67
2023-02-03T02:52:41.721Z,9.62
2023-02-03T02:55:17.602Z,9.74
2023-02-03T02:57:46.278Z,9.72
2023-02-03T03:00:13.843Z,9.68
2023-02-03T03:02:41.141Z,9.62
2023-02-03T03:05:10.585Z,9.51
2023-02-03T03:07:51.575Z,9.69
2023-02-03T03:10:24.707Z,9.69
2023-02-03T03:12:55.881Z,9.76
2023-02-03T03:15:27.574Z,9.73
2023-02-03T03:17:59.505Z,9.70
2023-02-03T03:20:27.908Z,9.66
2023-02-03T03:23:00.263Z,9.63
2023-02-03T03:25:36.777Z,9.93
2023-02-03T03:28:08.556Z,9.76
2023-02-03T03:30:37.753Z,9.78
2023-02-03T03:33:06.099Z,9.60
2023-02-03T03:35:46.852Z,9.61
2023-02-03T03:38:22.162Z,9.70
2023-02-03T03:40:55.196Z,9.69
2023-02-03T03:43:26.935Z,9.81
2023-02-03T03:46:14.069Z,9.69
2023-02-03T03:48:52.209Z,9.61
2023-02-03T03:51:27.282Z,9.45
2023-02-03T03:53:56.955Z,9.56
2023-02-03T03:56:41.651Z,9.48
2023-02-03T03:59:10.073Z,9.61
2023-02-03T04:01:38.809Z,9.46
2023-02-03T04:04:09.203Z,9.33
2023-02-03T04:06:38.583Z,9.36
2023-02-03T04:09:06.011Z,9.46
2023-02-03T04:11:52.197Z,9.41
2023-02-03T04:14:19.477Z,9.44
2023-02-03T04:16:46.626Z,9.53
2023-02-03T04:19:13.835Z,9.46
2023-02-03T04:21:41.050Z,9.39
2023-02-03T04:24:08.267Z,9.44
2023-02-03T04:26:35.461Z,9.67
2023-02-03T04:29:02.923Z,9.90
2023-02-03T04:31:30.237Z,9.90
2023-02-03T04:33:57.525Z,9.78
2023-02-03T04:36:24.796Z,9.92
2023-02-03T04:38:52.216Z,9.64
2023-02-03T04:41:19.520Z,10.05
2023-02-03T04:43:46.836Z,9.84
2023-02-03T04:46:14.130Z,9.84
2023-02-03T04:48:41.327Z,9.64
2023-02-03T04:51:09.315Z,9.83
2023-02-03T04:53:36.962Z,9.47
2023-02-03T04:56:04.567Z,9.40
2023-02-03T04:58:31.770Z,9.26
2023-02-03T05:00:59.260Z,9.30
2023-02-03T05:03:26.578Z,9.62
2023-02-03T05:05:56.942Z,9.72
2023-02-03T05:08:24.955Z,9.59
2023-02-03T05:10:52.123Z,9.49
2023-02-03T05:13:19.322Z,9.52
2023-02-03T05:15:47.507Z,9.48
2023-02-03T05:18:14.793Z,9.47
2023-02-03T05:20:41.999Z,9.69
2023-02-03T05:23:09.188Z,9.68
2023-02-03T05:25:36.433Z,9.71
2023-02-03T05:28:03.853Z,9.89
2023-02-03T05:30:31.172Z,9.79
2023-02-03T05:32:58.372Z,9.70
2023-02-03T05:35:25.628Z,9.66
2023-02-03T05:37:52.886Z,9.76
2023-02-03T05:40:38.590Z,9.77
2023-02-03T05:43:05.773Z,9.80
2023-02-03T05:45:32.982Z,9.73
2023-02-03T05:48:02.454Z,9.60
2023-02-03T05:50:33.317Z,9.72
2023-02-03T05:53:15.185Z,9.68
2023-02-03T05:55:44.652Z,9.77
2023-02-03T05:58:11.854Z,9.76
2023-02-03T06:00:39.008Z,9.70
2023-02-03T06:03:06.592Z,9.56
2023-02-03T06:05:34.762Z,9.42
2023-02-03T06:08:01.960Z,9.59
2023-02-03T06:10:29.496Z,9.48
2023-02-03T06:12:56.921Z,9.52
2023-02-03T06:15:24.555Z,9.55
2023-02-03T06:17:52.075Z,9.56
2023-02-03T06:20:20.316Z,9.45
2023-02-03T06:22:47.542Z,9.35
2023-02-03T06:25:14.750Z,9.52
2023-02-03T06:27:42.250Z,9.38
2023-02-03T06:30:11.458Z,9.25
2023-02-03T06:32:38.718Z,9.43
2023-02-03T06:35:06.187Z,9.62
2023-02-03T06:37:33.751Z,9.73
2023-02-03T06:40:01.162Z,9.56
2023-02-03T06:42:28.330Z,9.41
2023-02-03T06:44:55.578Z,9.43
2023-02-03T06:47:22.836Z,9.46
2023-02-03T06:49:50.007Z,9.35
2023-02-03T06:52:17.436Z,9.25
2023-02-03T06:54:44.689Z,9.54
2023-02-03T06:57:12.043Z,9.45
2023-02-03T06:59:39.414Z,9.37
2023-02-03T07:02:09.208Z,9.20
2023-02-03T07:04:37.045Z,9.39
2023-02-03T07:07:04.281Z,9.21
2023-02-03T07:09:31.506Z,9.15
2023-02-03T07:11:58.745Z,9.14
2023-02-03T07:14:26.174Z,9.16
2023-02-03T07:16:54.369Z,9.18
2023-02-03T07:19:21.703Z,8.89
2023-02-03T07:21:48.874Z,9.24
2023-02-03T07:24:16.142Z,9.29
2023-02-03T07:26:52.806Z,9.27
2023-02-03T07:29:20.236Z,9.09
2023-02-03T07:31:47.650Z,9.24
2023-02-03T07:34:15.586Z,9.28
2023-02-03T07:36:42.780Z,9.13
2023-02-03T07:39:09.981Z,9.42
2023-02-03T07:41:37.350Z,9.31
2023-02-03T07:44:05.324Z,9.30
2023-02-03T07:46:32.608Z,9.28
2023-02-03T07:48:59.910Z,9.19
2023-02-03T07:51:27.154Z,9.09
2023-02-03T07:53:54.575Z,9.16
2023-02-03T07:56:21.824Z,9.18
2023-02-03T07:58:52.586Z,9.97
2023-02-03T08:01:20.080Z,10.16
2023-02-03T08:03:47.374Z,10.85
2023-02-03T08:06:14.709Z,10.83
2023-02-03T08:08:42.189Z,10.88
2023-02-03T08:11:09.691Z,10.92
2023-02-03T08:13:37.568Z,10.53
2023-02-03T08:16:05.338Z,10.15
2023-02-03T08:18:32.876Z,10.01
2023-02-03T08:21:00.846Z,9.92
2023-02-03T08:23:28.123Z,9.90
2023-02-03T08:25:55.442Z,9.84
2023-02-03T08:28:22.645Z,10.00
2023-02-03T08:30:49.987Z,9.84
2023-02-03T08:33:17.325Z,9.89
2023-02-03T08:35:49.722Z,10.05
2023-02-03T08:38:17.258Z,9.96
2023-02-03T08:40:44.620Z,10.03
2023-02-03T08:43:12.089Z,9.87
2023-02-03T08:45:40.886Z,9.71
2023-02-03T08:48:08.230Z,9.69
2023-02-03T08:50:35.826Z,10.00
2023-02-03T08:53:03.246Z,10.12
2023-02-03T08:55:35.415Z,9.89
2023-02-03T08:58:06.196Z,9.85
2023-02-03T09:00:36.381Z,9.84
2023-02-03T09:03:04.182Z,9.66
2023-02-03T09:05:32.194Z,9.88
2023-02-03T09:07:59.570Z,9.87
2023-02-03T09:10:27.816Z,10.17
2023-02-03T09:12:56.430Z,10.31
2023-02-03T09:15:27.199Z,10.16
2023-02-03T09:17:57.982Z,10.27
2023-02-03T09:20:26.496Z,10.19
2023-02-03T09:22:55.070Z,10.12
2023-02-03T09:25:24.957Z,9.62
2023-02-03T09:27:52.440Z,9.77
2023-02-03T09:30:20.706Z,9.60
2023-02-03T09:32:54.073Z,9.67
2023-02-03T09:35:22.783Z,9.98
2023-02-03T09:37:50.053Z,10.01
2023-02-03T09:40:36.335Z,9.93
2023-02-03T09:43:24.604Z,9.97
2023-02-03T09:45:52.155Z,10.13
2023-02-03T09:48:25.302Z,10.51
2023-02-03T09:50:55.843Z,10.69
2023-02-03T09:53:37.883Z,10.67
2023-02-03T09:56:05.339Z,10.48
2023-02-03T09:58:34.489Z,10.15
2023-02-03T10:01:06.492Z,10.41
2023-02-03T10:03:46.259Z,10.57
2023-02-03T10:06:28.044Z,10.54
2023-02-03T10:09:05.585Z,10.45
2023-02-03T10:11:54.640Z,10.79
2023-02-03T10:14:47.536Z,10.63
2023-02-03T10:17:33.518Z,10.65
2023-02-03T10:20:05.362Z,10.66
2023-02-03T10:22:37.921Z,10.59
2023-02-03T10:25:16.105Z,10.91
2023-02-03T10:27:44.464Z,11.03
2023-02-03T10:30:23.833Z,11.00
2023-02-03T10:33:11.212Z,11.23
2023-02-03T10:36:03.861Z,11.12
2023-02-03T10:38:58.302Z,10.91
2023-02-03T10:41:31.257Z,11.03
2023-02-03T10:43:58.944Z,11.14
2023-02-03T10:46:31.118Z,11.15
2023-02-03T10:48:58.915Z,11.10
2023-02-03T10:51:35.131Z,10.98
2023-02-03T10:54:09.918Z,11.02
2023-02-03T10:56:38.330Z,11.38
2023-02-03T10:59:07.394Z,11.30
2023-02-03T11:01:41.686Z,11.45
2023-02-03T11:04:27.646Z,11.27
2023-02-03T11:07:03.398Z,11.49
2023-02-03T11:09:37.745Z,11.24
2023-02-03T11:12:16.598Z,11.26
2023-02-03T11:14:48.392Z,11.24
2023-02-03T11:17:29.719Z,11.15
2023-02-03T11:20:06.617Z,11.12
2023-02-03T11:22:37.981Z,11.12
2023-02-03T11:25:17.075Z,11.44
2023-02-03T11:27:45.646Z,11.37
2023-02-03T11:30:30.435Z,11.09
2023-02-03T11:33:00.941Z,11.13
2023-02-03T11:35:31.797Z,11.35
2023-02-03T11:38:01.142Z,11.18
2023-02-03T11:40:34.416Z,11.06
2023-02-03T11:43:17.863Z,11.08
2023-02-03T11:45:48.571Z,10.77
2023-02-03T11:48:32.252Z,10.68
2023-02-03T11:51:18.062Z,10.46
2023-02-03T11:53:57.289Z,10.47
2023-02-03T11:56:24.874Z,10.37
2023-02-03T11:59:10.965Z,10.50
2023-02-03T12:01:54.544Z,10.65
2023-02-03T12:04:37.429Z,10.67
2023-02-03T12:07:36.864Z,10.70
2023-02-03T12:10:22.399Z,10.74
2023-02-03T12:13:15.097Z,10.86
2023-02-03T12:15:47.043Z,10.83
2023-02-03T12:18:35.891Z,10.71
2023-02-03T12:21:24.973Z,10.85
2023-02-03T12:24:35.850Z,10.98
2023-02-03T12:27:28.887Z,10.79
2023-02-03T12:30:03.844Z,11.02
2023-02-03T12:32:52.699Z,10.98
2023-02-03T12:35:40.072Z,10.93
2023-02-03T12:38:18.945Z,10.98
2023-02-03T12:40:59.352Z,11.22
2023-02-03T12:43:39.963Z,11.22
2023-02-03T12:46:36.783Z,11.42
2023-02-03T12:49:15.730Z,11.53
2023-02-03T12:51:59.674Z,11.46
2023-02-03T12:54:54.147Z,11.27
2023-02-03T12:57:32.351Z,11.32
2023-02-03T13:00:17.888Z,11.56
2023-02-03T13:02:56.212Z,11.48
2023-02-03T13:05:28.895Z,11.55
2023-02-03T13:08:06.253Z,11.23
2023-02-03T13:10:44.057Z,11.03
2023-02-03T13:13:15.220Z,11.07
2023-02-03T13:15:47.824Z,10.96
2023-02-03T13:18:33.639Z,10.93
2023-02-03T13:21:01.076Z,11.02
2023-02-03T13:23:28.380Z,11.05
2023-02-03T13:26:51.930Z,11.21
2023-02-03T13:29:44.063Z,11.40
2023-02-03T13:32:23.255Z,11.59
2023-02-03T13:35:32.263Z,11.70
2023-02-03T13:38:04.009Z,11.76
2023-02-03T13:40:51.827Z,11.58
2023-02-03T13:43:37.189Z,11.64
2023-02-03T13:46:09.037Z,11.61
2023-02-03T13:48:37.023Z,11.89
2023-02-03T13:51:15.339Z,11.89
2023-02-03T13:53:44.395Z,11.58
2023-02-03T13:56:25.351Z,11.80
2023-02-03T13:59:40.506Z,11.70
2023-02-03T14:02:20.036Z,11.81
2023-02-03T14:04:47.376Z,11.76
2023-02-03T14:07:38.312Z,11.49
2023-02-03T14:10:14.729Z,11.50
2023-02-03T14:12:51.246Z,11.60
2023-02-03T14:15:21.599Z,11.66
2023-02-03T14:17:52.293Z,11.52
2023-02-03T14:20:25.670Z,11.30
2023-02-03T14:22:56.169Z,11.39
2023-02-03T14:25:24.690Z,11.48
2023-02-03T14:28:04.314Z,11.55
2023-02-03T14:30:31.742Z,11.54
2023-02-03T14:33:01.416Z,11.68
2023-02-03T14:35:37.127Z,11.64
2023-02-03T14:38:06.995Z,11.66
2023-02-03T14:40:48.058Z,11.56
2023-02-03T14:43:43.457Z,11.32
2023-02-03T14:46:33.947Z,11.29
2023-02-03T14:49:03.995Z,11.35
2023-02-03T14:51:50.121Z,11.40
2023-02-03T14:54:35.819Z,11.38
2023-02-03T14:57:21.443Z,11.37
2023-02-03T14:59:59.342Z,11.47
2023-02-03T15:02:31.044Z,11.48
2023-02-03T15:05:13.826Z,11.48
2023-02-03T15:07:49.657Z,11.46
2023-02-03T15:10:27.452Z,11.62
2023-02-03T15:12:56.997Z,11.62
2023-02-03T15:15:25.610Z,11.69
2023-02-03T15:17:55.434Z,11.64
2023-02-03T15:20:32.546Z,11.33
2023-02-03T15:23:00.414Z,11.21
2023-02-03T15:25:30.267Z,11.32
2023-02-03T15:28:19.330Z,11.45
2023-02-03T15:30:48.293Z,11.55
2023-02-03T15:33:20.358Z,11.38
2023-02-03T15:35:51.588Z,11.62
2023-02-03T15:38:26.590Z,11.38
2023-02-03T15:40:57.828Z,11.47
2023-02-03T15:43:30.181Z,11.52
2023-02-03T15:46:13.442Z,11.60
2023-02-03T15:48:45.686Z,11.84
2023-02-03T15:51:22.014Z,11.75
2023-02-03T15:54:12.078Z,11.67
2023-02-03T15:56:42.604Z,11.81
2023-02-03T15:59:35.887Z,11.85
2023-02-03T16:02:15.359Z,11.83
2023-02-03T16:04:43.274Z,11.86
2023-02-03T16:07:22.939Z,11.62
2023-02-03T16:09:55.405Z,11.62
2023-02-03T16:12:26.314Z,11.89
2023-02-03T16:14:55.195Z,11.73
2023-02-03T16:17:35.617Z,11.79
2023-02-03T16:20:14.323Z,11.80
2023-02-03T16:23:02.095Z,11.86
2023-02-03T16:25:32.773Z,11.94
2023-02-03T16:28:21.074Z,12.11
2023-02-03T16:31:24.334Z,11.95
2023-02-03T16:34:10.295Z,11.78
2023-02-03T16:37:01.716Z,11.91
2023-02-03T16:39:47.787Z,11.78
2023-02-03T16:42:38.822Z,11.77
2023-02-03T16:45:36.107Z,11.85
2023-02-03T16:48:22.807Z,11.59
2023-02-03T16:50:50.926Z,11.55
2023-02-03T16:53:20.704Z,11.57
2023-02-03T16:55:48.720Z,11.62
2023-02-03T16:58:16.618Z,11.63
2023-02-03T17:00:46.245Z,11.76
2023-02-03T17:03:19.440Z,11.73
2023-02-03T17:05:47.828Z,11.48
2023-02-03T17:08:16.046Z,11.60
2023-02-03T17:10:44.885Z,11.77
2023-02-03T17:13:12.430Z,11.78
2023-02-03T17:15:44.452Z,11.68
2023-02-03T17:18:12.476Z,11.66
2023-02-03T17:20:40.130Z,11.83
2023-02-03T17:23:07.787Z,11.80
2023-02-03T17:25:38.581Z,11.82
2023-02-03T17:28:07.863Z,11.76
2023-02-03T17:30:36.053Z,11.77
2023-02-03T17:33:11.780Z,11.74
2023-02-03T17:35:44.228Z,11.65
2023-02-03T17:38:13.327Z,11.79
2023-02-03T17:54:30.969Z,11.41
2023-02-03T17:56:58.140Z,11.44
2023-02-03T17:59:25.351Z,11.41
2023-02-03T18:01:53.009Z,11.46
2023-02-03T18:04:20.292Z,11.45
2023-02-03T18:06:47.481Z,11.83
2023-02-03T18:09:16.612Z,11.65
2023-02-03T18:11:45.845Z,11.52
2023-02-03T18:14:15.039Z,11.41
2023-02-03T18:16:42.943Z,11.41
2023-02-03T18:19:14.193Z,11.42
2023-02-03T18:21:42.514Z,11.32
2023-02-03T18:24:12.188Z,11.09
2023-02-03T18:26:49.805Z,11.05
2023-02-03T18:29:17.612Z,11.08
2023-02-03T18:31:45.536Z,11.05
2023-02-03T18:34:12.922Z,10.98
2023-02-03T18:39:15.076Z,11.20
2023-02-03T18:41:42.568Z,10.98
2023-02-03T18:44:10.048Z,10.89
2023-02-03T18:46:37.402Z,10.93
2023-02-03T18:49:07.879Z,10.84
2023-02-03T18:51:37.938Z,11.04
2023-02-03T18:54:05.217Z,11.16
2023-02-03T18:56:35.327Z,11.21
2023-02-03T18:59:14.125Z,11.17
2023-02-03T19:01:41.454Z,10.98
2023-02-03T19:04:08.953Z,10.95
2023-02-03T19:06:36.476Z,10.71
2023-02-03T19:09:05.453Z,10.65
2023-02-03T19:11:33.853Z,10.88
2023-02-03T19:14:01.192Z,10.78
2023-02-03T19:16:28.451Z,10.72
2023-02-03T19:18:55.765Z,10.83
2023-02-03T19:21:23.013Z,10.55
2023-02-03T19:23:50.352Z,10.65
2023-02-03T19:26:17.579Z,10.90
2023-02-03T19:28:44.965Z,10.73
2023-02-03T19:31:15.228Z,10.88
2023-02-03T19:33:43.002Z,10.95
2023-02-03T19:36:11.315Z,10.70
2023-02-03T19:38:38.887Z,10.65
2023-02-03T19:41:07.443Z,10.63
2023-02-03T19:43:35.124Z,10.73
2023-02-03T19:46:02.603Z,10.59
2023-02-03T19:48:29.840Z,10.62
2023-02-03T19:50:57.295Z,10.55
2023-02-03T19:53:24.539Z,10.79
2023-02-03T19:55:52.102Z,10.84
2023-02-03T19:58:19.405Z,10.70
2023-02-03T20:00:46.735Z,10.81
2023-02-03T20:03:13.943Z,10.77
2023-02-03T20:05:41.496Z,10.64
2023-02-03T20:08:12.873Z,10.58
2023-02-03T20:10:42.330Z,10.45
2023-02-03T20:13:10.800Z,10.62
2023-02-03T20:15:38.312Z,10.70
2023-02-03T20:18:06.833Z,10.72
2023-02-03T20:20:34.960Z,10.72
2023-02-03T20:23:02.414Z,10.67
2023-02-03T20:25:29.772Z,10.88
2023-02-03T20:27:58.206Z,10.76
2023-02-03T20:30:25.716Z,10.98
2023-02-03T20:32:54.747Z,10.77
2023-02-03T20:35:23.944Z,10.49
2023-02-03T20:37:51.500Z,10.54
2023-02-03T20:40:22.489Z,10.85
2023-02-03T20:42:51.152Z,10.53
2023-02-03T20:45:20.534Z,10.57
2023-02-03T20:47:47.860Z,10.74
2023-02-03T20:50:28.859Z,10.95
2023-02-03T20:52:59.369Z,10.75
2023-02-03T20:55:26.639Z,10.50
2023-02-03T20:57:56.788Z,10.56
2023-02-03T21:00:25.213Z,10.75
2023-02-03T21:03:11.562Z,11.03
2023-02-03T21:05:42.159Z,10.30
2023-02-03T21:08:14.657Z,10.52
2023-02-03T21:10:42.315Z,10.64
2023-02-03T21:13:29.472Z,10.45
2023-02-03T21:16:04.090Z,10.39
2023-02-03T21:19:00.540Z,10.71
2023-02-03T21:21:30.499Z,10.54
2023-02-03T21:23:57.758Z,10.53
2023-02-03T21:26:29.574Z,10.71
2023-02-03T21:28:59.043Z,10.82
2023-02-03T21:31:30.430Z,10.66
2023-02-03T21:33:59.750Z,10.54
2023-02-03T21:36:30.753Z,10.63
2023-02-03T21:39:02.200Z,10.52
2023-02-03T21:41:33.226Z,10.52
2023-02-03T21:44:01.031Z,10.56
2023-02-03T21:46:38.713Z,10.34
2023-02-03T21:49:07.486Z,10.65
2023-02-03T21:51:39.178Z,10.37
2023-02-03T21:54:23.718Z,10.41
2023-02-03T21:56:51.078Z,10.37
2023-02-03T21:59:21.674Z,10.48
2023-02-03T22:01:49.180Z,10.49
2023-02-03T22:04:16.562Z,10.43
2023-02-03T22:06:45.958Z,10.30
2023-02-03T22:09:19.441Z,10.45
2023-02-03T22:11:46.896Z,10.38
2023-02-03T22:14:16.758Z,10.31
2023-02-03T22:16:44.712Z,10.07
2023-02-03T22:19:12.047Z,10.07
2023-02-03T22:21:39.504Z,10.31
2023-02-03T22:24:06.742Z,10.44
2023-02-03T22:26:34.004Z,10.30
2023-02-03T22:29:02.373Z,10.30
2023-02-03T22:31:29.927Z,10.06
2023-02-03T22:33:57.321Z,9.96
2023-02-03T22:36:25.819Z,10.20
2023-02-03T22:38:53.234Z,10.29
2023-02-03T22:41:21.042Z,10.44
2023-02-03T22:43:48.332Z,10.64
2023-02-03T22:46:15.651Z,10.44
2023-02-03T22:48:42.932Z,10.52
2023-02-03T22:51:10.211Z,10.27
2023-02-03T22:53:39.468Z,10.23
2023-02-03T22:56:07.057Z,10.23
2023-02-03T22:58:34.347Z,10.42
2023-02-03T23:01:01.648Z,10.51
2023-02-03T23:03:32.230Z,10.37
2023-02-03T23:05:59.644Z,10.32
2023-02-03T23:08:27.458Z,10.40
2023-02-03T23:10:55.783Z,10.31
2023-02-03T23:13:23.352Z,10.29
2023-02-03T23:15:51.135Z,10.13
2023-02-03T23:18:18.422Z,10.41
2023-02-03T23:20:45.704Z,10.59
2023-02-03T23:23:14.198Z,10.57
2023-02-03T23:25:41.597Z,10.25
2023-02-03T23:28:08.875Z,10.32
2023-02-03T23:30:36.320Z,10.43
2023-02-03T23:33:03.598Z,10.34
2023-02-03T23:35:46.107Z,10.35
2023-02-03T23:38:14.771Z,10.34
2023-02-03T23:40:42.159Z,10.42
2023-02-03T23:43:09.437Z,10.47
2023-02-03T23:45:36.671Z,10.56
2023-02-03T23:48:04.693Z,10.44
2023-02-03T23:50:32.228Z,10.42
2023-02-03T23:52:59.743Z,10.48
2023-02-03T23:55:26.948Z,10.40
2023-02-03T23:57:54.237Z,10.54
